createdAt,value
2023-04-03T00:00:36.899Z,4.70
2023-04-03T00:03:04.023Z,6.18
2023-04-03T00:05:30.969Z,5.78
2023-04-03T00:07:57.708Z,4.70
2023-04-03T00:10:24.621Z,5.93
2023-04-03T00:12:51.343Z,7.18
2023-04-03T00:15:18.231Z,5.38
2023-04-03T00:17:45.138Z,6.22
2023-04-03T00:20:12.039Z,7.07
2023-04-03T00:22:38.846Z,6.13
2023-04-03T00:25:06.134Z,9.00
2023-04-03T00:27:32.904Z,5.32
2023-04-03T00:29:59.622Z,5.18
2023-04-03T00:32:26.373Z,5.55
2023-04-03T00:34:53.298Z,6.20
2023-04-03T00:37:20.410Z,5.95
2023-04-03T00:39:47.142Z,5.72
2023-04-03T00:42:13.877Z,5.07
2023-04-03T00:44:40.793Z,6.32
2023-04-03T00:47:11.671Z,4.93
2023-04-03T00:49:39.678Z,5.25
2023-04-03T00:52:16.615Z,4.68
2023-04-03T00:54:44.674Z,4.75
2023-04-03T00:57:12.561Z,5.70
2023-04-03T00:59:46.682Z,4.88
2023-04-03T01:02:13.577Z,5.03
2023-04-03T01:04:43.600Z,6.43
2023-04-03T01:07:21.948Z,7.07
2023-04-03T01:09:51.253Z,5.38
2023-04-03T01:12:22.048Z,5.18
2023-04-03T01:14:57.609Z,6.53
2023-04-03T01:17:39.709Z,5.20
2023-04-03T01:20:12.668Z,5.57
2023-04-03T01:22:53.969Z,8.23
2023-04-03T01:25:20.815Z,6.57
2023-04-03T01:27:47.555Z,6.15
2023-04-03T01:30:17.580Z,5.90
2023-04-03T01:32:44.512Z,6.97
2023-04-03T01:35:11.956Z,6.35
2023-04-03T01:37:38.790Z,4.57
2023-04-03T01:40:06.572Z,5.80
2023-04-03T01:42:33.440Z,6.05
2023-04-03T01:45:00.242Z,5.55
2023-04-03T01:47:27.011Z,6.30
2023-04-03T01:49:53.849Z,5.55
2023-04-03T01:52:20.676Z,5.32
2023-04-03T01:54:47.378Z,5.47
2023-04-03T01:57:16.014Z,4.93
2023-04-03T01:59:42.891Z,7.50
2023-04-03T02:02:13.405Z,5.18
2023-04-03T02:04:40.397Z,6.55
2023-04-03T02:07:07.371Z,5.82
2023-04-03T02:09:34.484Z,6.45
2023-04-03T02:12:01.265Z,5.55
2023-04-03T02:14:28.462Z,5.55
2023-04-03T02:16:55.682Z,5.15
2023-04-03T02:19:22.402Z,4.95
2023-04-03T02:21:49.111Z,7.55
2023-04-03T02:24:15.933Z,7.22
2023-04-03T02:26:42.640Z,5.43
2023-04-03T02:29:09.392Z,6.22
2023-04-03T02:31:36.253Z,6.68
2023-04-03T02:34:02.976Z,7.22
2023-04-03T02:36:31.172Z,5.80
2023-04-03T02:38:59.335Z,4.85
2023-04-03T02:41:29.303Z,5.20
2023-04-03T02:43:56.042Z,7.80
2023-04-03T02:46:22.781Z,5.40
2023-04-03T02:48:49.511Z,5.72
2023-04-03T02:51:16.504Z,8.38
2023-04-03T02:53:43.222Z,6.68
2023-04-03T02:56:10.298Z,6.20
2023-04-03T02:58:37.267Z,5.75
2023-04-03T03:01:04.224Z,6.22
2023-04-03T03:03:30.932Z,7.03
2023-04-03T03:06:09.458Z,6.18
2023-04-03T03:08:36.592Z,5.65
2023-04-03T03:11:04.427Z,6.50
2023-04-03T03:13:31.869Z,7.15
2023-04-03T03:15:58.982Z,4.95
2023-04-03T03:18:26.204Z,5.53
2023-04-03T03:20:58.427Z,6.30
2023-04-03T03:23:27.089Z,6.70
2023-04-03T03:25:58.808Z,5.80
2023-04-03T03:28:25.947Z,6.07
2023-04-03T03:30:52.736Z,7.00
2023-04-03T03:33:20.248Z,5.28
2023-04-03T03:35:46.985Z,5.63
2023-04-03T03:38:13.874Z,6.88
2023-04-03T03:40:40.687Z,6.22
2023-04-03T03:43:07.439Z,6.03
2023-04-03T03:45:34.275Z,5.28
2023-04-03T03:48:02.621Z,5.68
2023-04-03T03:50:29.482Z,7.82
2023-04-03T03:52:56.337Z,7.03
2023-04-03T03:55:23.266Z,5.10
2023-04-03T03:57:50.038Z,5.63
2023-04-03T04:00:17.124Z,7.82
2023-04-03T04:02:44.242Z,5.55
2023-04-03T04:05:11.179Z,6.07
2023-04-03T04:07:38.038Z,6.57
2023-04-03T04:10:05.854Z,5.00
2023-04-03T04:12:32.665Z,6.50
2023-04-03T04:15:00.266Z,5.10
2023-04-03T04:17:27.501Z,7.25
2023-04-03T04:19:54.262Z,5.65
2023-04-03T04:22:21.191Z,9.63
2023-04-03T04:24:47.952Z,5.78
2023-04-03T04:27:14.662Z,6.25
2023-04-03T04:29:41.427Z,5.90
2023-04-03T04:32:08.322Z,5.88
2023-04-03T04:34:35.044Z,6.32
2023-04-03T04:37:01.996Z,6.30
2023-04-03T04:39:28.963Z,5.90
2023-04-03T04:41:55.682Z,8.93
2023-04-03T04:44:22.463Z,5.68
2023-04-03T04:46:49.197Z,5.57
2023-04-03T04:49:16.003Z,6.15
2023-04-03T04:51:51.581Z,5.78
2023-04-03T04:54:19.382Z,5.90
2023-04-03T04:56:46.144Z,6.50
2023-04-03T04:59:13.006Z,6.43
2023-04-03T05:01:40.253Z,6.65
2023-04-03T05:04:07.462Z,7.78
2023-04-03T05:06:35.978Z,7.95
2023-04-03T05:09:03.222Z,6.93
2023-04-03T05:11:30.136Z,5.47
2023-04-03T05:13:56.883Z,5.47
2023-04-03T05:16:23.639Z,6.82
2023-04-03T05:18:50.632Z,7.30
2023-04-03T05:21:19.201Z,10.13
2023-04-03T05:23:46.125Z,18.17
2023-04-03T05:26:12.823Z,21.00
2023-04-03T05:28:39.575Z,20.55
2023-04-03T05:31:06.310Z,26.40
2023-04-03T05:33:33.056Z,19.90
2023-04-03T05:36:06.498Z,18.50
2023-04-03T05:38:33.812Z,9.63
2023-04-03T05:41:00.983Z,11.93
2023-04-03T05:43:27.748Z,10.15
2023-04-03T05:45:54.566Z,6.22
2023-04-03T05:48:21.628Z,7.63
2023-04-03T05:50:48.609Z,9.00
2023-04-03T05:53:29.342Z,5.60
2023-04-03T05:55:56.174Z,6.20
2023-04-03T05:58:22.914Z,8.15
2023-04-03T06:00:49.732Z,8.23
2023-04-03T06:03:16.939Z,10.50
2023-04-03T06:05:44.490Z,8.77
2023-04-03T06:08:11.272Z,5.90
2023-04-03T06:10:38.276Z,8.73
2023-04-03T06:13:05.688Z,6.72
2023-04-03T06:15:32.678Z,6.13
2023-04-03T06:17:59.443Z,6.90
2023-04-03T06:20:26.931Z,8.45
2023-04-03T06:22:53.724Z,11.15
2023-04-03T06:25:22.101Z,6.38
2023-04-03T06:27:48.887Z,6.03
2023-04-03T06:30:15.698Z,9.68
2023-04-03T06:32:42.544Z,6.95
2023-04-03T06:35:10.079Z,4.68
2023-04-03T06:37:37.022Z,7.10
2023-04-03T06:40:05.080Z,8.13
2023-04-03T06:42:32.375Z,8.75
2023-04-03T06:44:59.616Z,8.32
2023-04-03T06:47:26.443Z,8.40
2023-04-03T06:49:53.385Z,10.27
2023-04-03T06:52:23.532Z,6.00
2023-04-03T06:54:50.344Z,5.32
2023-04-03T06:57:17.130Z,5.80
2023-04-03T06:59:44.087Z,5.72
2023-04-03T07:02:13.449Z,6.60
2023-04-03T07:04:40.439Z,7.20
2023-04-03T07:07:07.311Z,11.68
2023-04-03T07:09:34.237Z,6.78
2023-04-03T07:12:02.361Z,5.30
2023-04-03T07:14:30.546Z,7.18
2023-04-03T07:16:58.424Z,5.53
2023-04-03T07:19:28.441Z,6.63
2023-04-03T07:21:56.125Z,6.22
2023-04-03T07:24:22.973Z,5.85
2023-04-03T07:26:53.839Z,4.28
2023-04-03T07:29:22.471Z,5.03
2023-04-03T07:31:50.238Z,5.38
2023-04-03T07:34:16.997Z,5.18
2023-04-03T07:36:43.773Z,4.97
2023-04-03T07:39:10.643Z,4.90
2023-04-03T07:41:37.884Z,5.35
2023-04-03T07:44:06.444Z,8.27
2023-04-03T07:46:33.895Z,6.43
2023-04-03T07:49:03.088Z,5.40
2023-04-03T07:51:30.811Z,4.32
2023-04-03T07:54:09.315Z,6.97
2023-04-03T07:56:36.201Z,4.82
2023-04-03T07:59:03.638Z,4.43
2023-04-03T08:01:33.369Z,5.57
2023-04-03T08:04:00.461Z,7.28
2023-04-03T08:06:44.823Z,4.40
2023-04-03T08:09:13.203Z,3.33
2023-04-03T08:11:40.938Z,4.85
2023-04-03T08:14:08.090Z,3.88
2023-04-03T08:16:34.895Z,5.43
2023-04-03T08:19:02.637Z,4.20
2023-04-03T08:21:29.495Z,6.45
2023-04-03T08:23:57.500Z,5.45
2023-04-03T08:26:24.468Z,3.72
2023-04-03T08:28:51.437Z,5.43
2023-04-03T08:31:20.988Z,3.92
2023-04-03T08:33:48.405Z,7.68
2023-04-03T08:36:20.488Z,4.65
2023-04-03T08:38:47.909Z,3.37
2023-04-03T08:41:40.752Z,2.85
2023-04-03T08:44:14.337Z,4.10
2023-04-03T08:46:41.405Z,3.75
2023-04-03T08:49:16.264Z,2.92
2023-04-03T08:51:47.996Z,4.43
2023-04-03T08:54:57.204Z,3.70
2023-04-03T08:57:40.680Z,3.75
2023-04-03T09:00:15.384Z,2.88
2023-04-03T09:02:52.034Z,5.43
2023-04-03T09:05:27.304Z,2.92
2023-04-03T09:08:04.481Z,4.65
2023-04-03T09:10:38.146Z,3.38
2023-04-03T09:13:21.810Z,3.88
2023-04-03T09:15:50.271Z,2.10
2023-04-03T09:18:52.022Z,5.90
2023-04-03T09:21:28.930Z,2.50
2023-04-03T09:24:01.555Z,5.50
2023-04-03T09:26:54.383Z,2.80
2023-04-03T09:29:24.034Z,3.35
2023-04-03T09:31:57.314Z,3.90
2023-04-03T09:34:28.648Z,4.47
2023-04-03T09:36:58.973Z,4.18
2023-04-03T09:39:29.501Z,4.55
2023-04-03T09:42:05.379Z,3.72
2023-04-03T09:44:34.959Z,4.47
2023-04-03T09:47:20.169Z,3.67
2023-04-03T09:49:46.986Z,4.40
2023-04-03T09:52:23.845Z,3.22
2023-04-03T09:54:50.597Z,2.15
2023-04-03T09:57:18.622Z,5.90
2023-04-03T10:00:00.595Z,3.38
2023-04-03T10:02:41.240Z,4.50
2023-04-03T10:05:41.482Z,4.43
2023-04-03T10:08:13.968Z,3.75
2023-04-03T10:10:48.836Z,3.23
2023-04-03T10:13:21.455Z,6.80
2023-04-03T10:15:57.084Z,3.03
2023-04-03T10:18:32.443Z,3.70
2023-04-03T10:21:11.898Z,4.05
2023-04-03T10:23:55.760Z,4.15
2023-04-03T10:26:50.659Z,4.32
2023-04-03T10:29:52.696Z,5.95
2023-04-03T10:32:40.337Z,3.55
2023-04-03T10:35:21.581Z,3.60
2023-04-03T10:38:01.188Z,4.28
2023-04-03T10:40:46.246Z,3.20
2023-04-03T10:43:27.880Z,3.88
2023-04-03T10:46:11.786Z,4.43
2023-04-03T10:49:00.160Z,2.42
2023-04-03T10:51:48.448Z,4.50
2023-04-03T10:54:33.203Z,2.85
2023-04-03T10:57:12.651Z,4.95
2023-04-03T10:59:47.694Z,4.00
2023-04-03T11:02:43.117Z,2.33
2023-04-03T11:05:19.057Z,3.80
2023-04-03T11:07:52.502Z,2.70
2023-04-03T11:10:27.151Z,5.93
2023-04-03T11:13:03.413Z,5.72
2023-04-03T11:15:34.071Z,4.85
2023-04-03T11:18:12.031Z,2.83
2023-04-03T11:20:43.017Z,3.80
2023-04-03T11:23:42.279Z,3.13
2023-04-03T11:26:29.378Z,2.75
2023-04-03T11:29:02.397Z,4.25
2023-04-03T11:31:29.202Z,5.40
2023-04-03T11:34:09.995Z,3.63
2023-04-03T11:36:51.184Z,3.95
2023-04-03T11:39:24.036Z,3.28
2023-04-03T11:42:03.312Z,2.70
2023-04-03T11:44:37.628Z,5.22
2023-04-03T11:47:09.780Z,3.50
2023-04-03T11:49:51.340Z,2.80
2023-04-03T11:52:42.478Z,3.05
2023-04-03T11:55:23.067Z,3.47
2023-04-03T11:57:59.143Z,6.45
2023-04-03T12:00:48.087Z,3.47
2023-04-03T12:03:24.946Z,4.65
2023-04-03T12:05:55.017Z,5.97
2023-04-03T12:08:46.949Z,2.70
2023-04-03T12:11:27.307Z,3.20
2023-04-03T12:13:56.880Z,3.40
2023-04-03T12:16:39.170Z,3.35
2023-04-03T12:19:15.083Z,3.00
2023-04-03T12:21:48.120Z,4.15
2023-04-03T12:24:17.862Z,3.25
2023-04-03T12:27:04.041Z,3.65
2023-04-03T12:29:33.898Z,2.80
2023-04-03T12:32:44.187Z,8.90
2023-04-03T12:35:36.054Z,1.80
2023-04-03T12:38:26.292Z,3.75
2023-04-03T12:41:37.131Z,2.05
2023-04-03T12:44:14.492Z,3.72
2023-04-03T12:46:52.047Z,5.05
2023-04-03T12:49:31.108Z,2.58
2023-04-03T12:51:58.143Z,5.80
2023-04-03T12:54:37.020Z,2.97
2023-04-03T12:57:30.208Z,3.45
2023-04-03T12:59:57.443Z,3.97
2023-04-03T13:02:34.421Z,3.10
2023-04-03T13:05:08.560Z,2.78
2023-04-03T13:07:39.877Z,4.43
2023-04-03T13:10:09.857Z,3.70
2023-04-03T13:12:57.964Z,3.75
2023-04-03T13:15:40.611Z,3.40
2023-04-03T13:18:23.275Z,3.53
2023-04-03T13:20:51.091Z,3.53
2023-04-03T13:23:21.509Z,3.95
2023-04-03T13:25:49.285Z,3.85
2023-04-03T13:28:20.032Z,4.38
2023-04-03T13:31:27.281Z,3.65
2023-04-03T13:34:14.249Z,6.10
2023-04-03T13:36:52.149Z,6.47
2023-04-03T13:39:18.820Z,3.60
2023-04-03T13:41:48.883Z,3.03
2023-04-03T13:44:36.804Z,4.57
2023-04-03T13:47:12.582Z,4.03
2023-04-03T13:49:42.269Z,3.70
2023-04-03T13:52:28.642Z,4.45
2023-04-03T13:55:01.406Z,3.42
2023-04-03T13:57:29.924Z,3.67
2023-04-03T13:59:56.791Z,4.32
2023-04-03T14:02:31.917Z,3.15
2023-04-03T14:05:02.319Z,5.03
2023-04-03T14:07:32.152Z,3.28
2023-04-03T14:09:59.295Z,4.38
2023-04-03T14:12:33.947Z,5.07
2023-04-03T14:15:25.264Z,3.72
2023-04-03T14:17:52.732Z,4.03
2023-04-03T14:20:22.796Z,3.72
2023-04-03T14:22:50.420Z,2.80
2023-04-03T14:25:17.938Z,5.15
2023-04-03T14:27:47.818Z,5.65
2023-04-03T14:30:35.323Z,3.42
2023-04-03T14:33:02.836Z,3.83
2023-04-03T14:35:29.647Z,5.22
2023-04-03T14:37:56.685Z,5.07
2023-04-03T14:40:27.249Z,2.22
2023-04-03T14:42:56.092Z,4.32
2023-04-03T14:45:23.840Z,3.92
2023-04-03T14:47:53.481Z,3.63
2023-04-03T14:50:23.711Z,3.75
2023-04-03T14:52:55.025Z,5.63
2023-04-03T14:55:24.285Z,3.85
2023-04-03T14:57:52.961Z,3.17
2023-04-03T15:00:21.953Z,3.33
2023-04-03T15:02:49.742Z,5.25
2023-04-03T15:05:17.675Z,6.07
2023-04-03T15:07:53.116Z,3.88
2023-04-03T15:10:28.602Z,3.80
2023-04-03T15:12:56.680Z,4.97
2023-04-03T15:15:25.225Z,2.90
2023-04-03T15:17:58.832Z,4.10
2023-04-03T15:20:28.537Z,4.93
2023-04-03T15:22:57.181Z,4.22
2023-04-03T15:25:24.987Z,6.18
2023-04-03T15:27:52.131Z,5.28
2023-04-03T15:30:20.739Z,3.88
2023-04-03T15:32:48.007Z,4.85
2023-04-03T15:35:15.044Z,4.85
2023-04-03T15:37:41.864Z,4.07
2023-04-03T15:40:09.357Z,3.97
2023-04-03T15:42:36.105Z,5.47
2023-04-03T15:45:03.142Z,2.40
2023-04-03T15:47:30.458Z,4.78
2023-04-03T15:49:57.628Z,3.25
2023-04-03T15:52:24.903Z,4.35
2023-04-03T15:54:51.701Z,4.53
2023-04-03T15:57:18.637Z,4.32
2023-04-03T15:59:45.504Z,4.18
2023-04-03T16:02:14.294Z,3.92
2023-04-03T16:04:41.930Z,4.93
2023-04-03T16:07:08.904Z,7.32
2023-04-03T16:09:36.783Z,4.30
2023-04-03T16:12:04.541Z,2.92
2023-04-03T16:14:31.490Z,6.53
2023-04-03T16:17:01.985Z,6.93
2023-04-03T16:19:30.785Z,5.82
2023-04-03T16:21:57.853Z,4.68
2023-04-03T16:24:24.613Z,6.22
2023-04-03T16:26:51.376Z,3.53
2023-04-03T16:29:18.113Z,3.95
2023-04-03T16:31:44.887Z,6.90
2023-04-03T16:34:12.501Z,2.97
2023-04-03T16:36:39.312Z,3.83
2023-04-03T16:39:06.210Z,4.00
2023-04-03T16:41:33.127Z,4.35
2023-04-03T16:44:00.349Z,4.13
2023-04-03T16:46:27.108Z,3.80
2023-04-03T16:48:53.871Z,3.88
2023-04-03T16:51:20.587Z,3.95
2023-04-03T16:53:47.314Z,3.70
2023-04-03T16:56:14.036Z,3.40
2023-04-03T16:58:40.767Z,5.28
2023-04-03T17:01:16.078Z,4.10
2023-04-03T17:03:43.066Z,4.28
2023-04-03T17:06:17.182Z,5.20
2023-04-03T17:08:45.916Z,4.47
2023-04-03T17:11:12.847Z,3.28
2023-04-03T17:13:39.712Z,3.65
2023-04-03T17:16:09.890Z,6.55
2023-04-03T17:18:37.527Z,3.47
2023-04-03T17:21:05.525Z,4.65
2023-04-03T17:23:35.435Z,4.93
2023-04-03T17:26:03.752Z,3.72
2023-04-03T17:28:30.579Z,3.85
2023-04-03T17:31:02.494Z,4.15
2023-04-03T17:33:33.234Z,3.05
2023-04-03T17:36:02.379Z,5.30
2023-04-03T17:38:29.151Z,4.70
2023-04-03T17:41:00.368Z,3.92
2023-04-03T17:43:28.202Z,3.95
2023-04-03T17:46:03.672Z,3.38
2023-04-03T17:48:31.593Z,5.50
2023-04-03T17:50:58.515Z,4.05
2023-04-03T17:53:27.447Z,3.80
2023-04-03T17:55:54.267Z,2.92
2023-04-03T17:58:21.016Z,3.28
2023-04-03T18:00:48.325Z,4.80
2023-04-03T18:03:15.062Z,4.32
2023-04-03T18:05:41.808Z,7.53
2023-04-03T18:08:08.703Z,6.03
2023-04-03T18:10:37.258Z,5.00
2023-04-03T18:13:07.221Z,3.95
2023-04-03T18:15:34.009Z,9.88
2023-04-03T18:18:01.337Z,4.30
2023-04-03T18:20:28.159Z,7.15
2023-04-03T18:22:54.951Z,8.10
2023-04-03T18:25:21.690Z,5.63
2023-04-03T18:27:48.763Z,6.75
2023-04-03T18:30:17.505Z,5.65
2023-04-03T18:32:44.746Z,4.53
2023-04-03T18:35:11.724Z,4.22
2023-04-03T18:37:38.453Z,6.68
2023-04-03T18:40:05.910Z,4.57
2023-04-03T18:42:32.661Z,7.07
2023-04-03T18:45:04.294Z,5.07
2023-04-03T18:47:32.227Z,6.93
2023-04-03T18:49:59.304Z,4.30
2023-04-03T18:52:26.067Z,5.82
2023-04-03T18:54:52.961Z,7.32
2023-04-03T18:57:19.804Z,4.32
2023-04-03T18:59:46.491Z,5.15
2023-04-03T19:02:14.220Z,5.05
2023-04-03T19:04:41.325Z,4.55
2023-04-03T19:07:10.107Z,4.38
2023-04-03T19:09:38.504Z,4.72
2023-04-03T19:12:06.315Z,4.85
2023-04-03T19:14:33.210Z,6.97
2023-04-03T19:17:00.361Z,4.30
2023-04-03T19:19:27.239Z,4.45
2023-04-03T19:21:53.992Z,4.80
2023-04-03T19:24:21.639Z,4.32
2023-04-03T19:26:48.372Z,4.63
2023-04-03T19:29:15.235Z,4.72
2023-04-03T19:31:42.014Z,5.35
2023-04-03T19:34:08.844Z,4.95
2023-04-03T19:36:36.345Z,8.02
2023-04-03T19:39:04.413Z,5.63
2023-04-03T19:41:34.398Z,6.03
2023-04-03T19:44:01.683Z,4.70
2023-04-03T19:46:30.608Z,6.13
2023-04-03T19:48:57.628Z,6.32
2023-04-03T19:51:24.441Z,5.38
2023-04-03T19:53:51.906Z,9.70
2023-04-03T19:56:21.153Z,6.47
2023-04-03T19:58:53.669Z,7.85
2023-04-03T20:01:22.457Z,7.55
2023-04-03T20:03:49.548Z,6.72
2023-04-03T20:06:17.062Z,6.40
2023-04-03T20:08:43.918Z,6.07
2023-04-03T20:11:11.108Z,5.55
2023-04-03T20:13:38.581Z,7.07
2023-04-03T20:16:07.044Z,6.00
2023-04-03T20:18:34.811Z,6.78
2023-04-03T20:21:04.637Z,5.93
2023-04-03T20:23:31.610Z,8.93
2023-04-03T20:26:09.245Z,6.00
2023-04-03T20:28:38.139Z,9.20
2023-04-03T20:31:06.536Z,6.88
2023-04-03T20:33:33.891Z,5.95
2023-04-03T20:36:01.976Z,5.13
2023-04-03T20:38:28.814Z,4.10
2023-04-03T20:40:55.622Z,6.07
2023-04-03T20:43:23.288Z,5.93
2023-04-03T20:45:51.204Z,5.38
2023-04-03T20:48:18.667Z,4.88
2023-04-03T20:50:46.407Z,4.20
2023-04-03T20:53:14.709Z,4.75
2023-04-03T20:55:42.471Z,4.30
2023-04-03T20:58:09.530Z,4.75
2023-04-03T21:00:38.479Z,7.82
2023-04-03T21:03:05.944Z,4.18
2023-04-03T21:05:34.989Z,4.43
2023-04-03T21:08:39.913Z,5.60
2023-04-03T21:11:44.063Z,4.20
2023-04-03T21:16:59.041Z,7.25
2023-04-03T21:19:26.277Z,4.93
2023-04-03T21:21:54.468Z,4.00
2023-04-03T21:24:22.869Z,6.18
2023-04-03T21:26:49.714Z,6.20
2023-04-03T21:29:16.488Z,6.90
2023-04-03T21:31:58.885Z,3.60
2023-04-03T21:34:31.621Z,5.07
2023-04-03T21:37:03.928Z,5.60
2023-04-03T21:39:30.841Z,4.25
2023-04-03T21:41:57.587Z,4.70
2023-04-03T21:44:24.981Z,7.22
2023-04-03T21:46:54.624Z,6.22
2023-04-03T21:49:22.744Z,4.28
2023-04-03T21:51:51.389Z,4.85
2023-04-03T21:54:19.045Z,7.45
2023-04-03T21:56:47.980Z,6.47
2023-04-03T21:59:15.712Z,6.28
2023-04-03T22:01:42.923Z,5.55
2023-04-03T22:04:09.724Z,7.68
2023-04-03T22:06:37.875Z,9.13
2023-04-03T22:09:04.837Z,5.57
2023-04-03T22:11:31.599Z,4.70
2023-04-03T22:13:58.363Z,7.20
2023-04-03T22:16:25.443Z,6.18
2023-04-03T22:18:52.890Z,5.30
2023-04-03T22:21:20.977Z,4.10
2023-04-03T22:23:47.711Z,6.05
2023-04-03T22:26:14.533Z,3.70
2023-04-03T22:28:43.359Z,4.00
2023-04-03T22:31:13.481Z,5.88
2023-04-03T22:33:41.536Z,2.75
2023-04-03T22:36:10.296Z,4.22
2023-04-03T22:38:38.846Z,4.78
2023-04-03T22:41:07.592Z,4.53
2023-04-03T22:43:36.390Z,3.17
2023-04-03T22:46:05.295Z,5.53
2023-04-03T22:48:33.350Z,4.75
2023-04-03T22:51:01.087Z,4.80
2023-04-03T22:53:28.912Z,3.22
2023-04-03T22:55:59.345Z,3.60
2023-04-03T22:58:27.516Z,3.88
2023-04-03T23:01:08.136Z,4.22
2023-04-03T23:03:39.553Z,8.25
2023-04-03T23:06:07.695Z,5.00
2023-04-03T23:08:35.609Z,4.65
2023-04-03T23:11:02.576Z,5.43
2023-04-03T23:13:29.685Z,7.03
2023-04-03T23:15:57.874Z,5.72
2023-04-03T23:18:25.857Z,3.65
2023-04-03T23:20:54.603Z,3.42
2023-04-03T23:23:23.449Z,4.60
2023-04-03T23:25:59.277Z,7.55
2023-04-03T23:28:27.233Z,4.25
2023-04-03T23:31:02.013Z,5.18
2023-04-03T23:33:30.368Z,3.38
2023-04-03T23:35:58.514Z,4.50
2023-04-03T23:38:26.113Z,3.72
2023-04-03T23:40:52.989Z,6.03
2023-04-03T23:43:19.731Z,5.57
2023-04-03T23:45:47.208Z,3.38
2023-04-03T23:48:14.056Z,4.70
2023-04-03T23:50:42.102Z,5.18
2023-04-03T23:53:09.714Z,3.70
2023-04-03T23:55:36.848Z,4.10
2023-04-03T23:58:03.816Z,5.43
